sensor_id;sensor_type;location;lat;lon;timestamp;P1;durP1;ratioP1;P2;durP2;ratioP2
73331;SDS011;61560;33.718;73.040;2022-11-28T00:01:11;42.03;;;16.83;;
73331;SDS011;61560;33.718;73.040;2022-11-28T00:04:04;35.65;;;14.77;;
73331;SDS011;61560;33.718;73.040;2022-11-28T00:06:38;33.92;;;14.50;;
73331;SDS011;61560;33.718;73.040;2022-11-28T00:09:06;37.65;;;15.68;;
73331;SDS011;61560;33.718;73.040;2022-11-28T00:11:35;42.58;;;15.32;;
73331;SDS011;61560;33.718;73.040;2022-11-28T00:14:05;37.65;;;14.10;;
73331;SDS011;61560;33.718;73.040;2022-11-28T00:16:32;33.55;;;14.35;;
73331;SDS011;61560;33.718;73.040;2022-11-28T00:19:02;36.80;;;15.02;;
73331;SDS011;61560;33.718;73.040;2022-11-28T00:21:30;33.85;;;14.02;;
73331;SDS011;61560;33.718;73.040;2022-11-28T00:23:59;30.17;;;12.75;;
73331;SDS011;61560;33.718;73.040;2022-11-28T00:26:28;36.55;;;14.95;;
73331;SDS011;61560;33.718;73.040;2022-11-28T00:28:59;36.90;;;15.23;;
73331;SDS011;61560;33.718;73.040;2022-11-28T00:31:29;33.78;;;12.45;;
73331;SDS011;61560;33.718;73.040;2022-11-28T00:33:58;38.72;;;12.60;;
73331;SDS011;61560;33.718;73.040;2022-11-28T00:36:27;33.42;;;12.70;;
73331;SDS011;61560;33.718;73.040;2022-11-28T00:38:54;38.05;;;12.90;;
73331;SDS011;61560;33.718;73.040;2022-11-28T00:41:22;32.85;;;13.25;;
73331;SDS011;61560;33.718;73.040;2022-11-28T00:43:53;41.88;;;13.30;;
73331;SDS011;61560;33.718;73.040;2022-11-28T00:46:20;29.88;;;13.00;;
73331;SDS011;61560;33.718;73.040;2022-11-28T00:48:49;30.08;;;13.02;;
73331;SDS011;61560;33.718;73.040;2022-11-28T00:51:20;34.05;;;13.10;;
73331;SDS011;61560;33.718;73.040;2022-11-28T00:53:50;27.85;;;11.35;;
73331;SDS011;61560;33.718;73.040;2022-11-28T00:56:21;30.92;;;12.85;;
73331;SDS011;61560;33.718;73.040;2022-11-28T00:58:50;26.27;;;11.75;;
73331;SDS011;61560;33.718;73.040;2022-11-28T01:01:22;30.58;;;11.82;;
73331;SDS011;61560;33.718;73.040;2022-11-28T01:03:56;23.77;;;11.07;;
73331;SDS011;61560;33.718;73.040;2022-11-28T01:06:27;28.58;;;12.07;;
73331;SDS011;61560;33.718;73.040;2022-11-28T01:09:02;33.45;;;12.70;;
73331;SDS011;61560;33.718;73.040;2022-11-28T01:11:32;27.02;;;10.57;;
73331;SDS011;61560;33.718;73.040;2022-11-28T01:13:59;29.85;;;10.90;;
73331;SDS011;61560;33.718;73.040;2022-11-28T01:16:27;26.15;;;11.43;;
73331;SDS011;61560;33.718;73.040;2022-11-28T01:18:55;30.70;;;12.65;;
73331;SDS011;61560;33.718;73.040;2022-11-28T01:21:22;24.23;;;10.38;;
73331;SDS011;61560;33.718;73.040;2022-11-28T01:23:49;26.08;;;11.45;;
73331;SDS011;61560;33.718;73.040;2022-11-28T01:26:20;30.95;;;12.48;;
73331;SDS011;61560;33.718;73.040;2022-11-28T01:28:50;30.25;;;12.93;;
73331;SDS011;61560;33.718;73.040;2022-11-28T01:31:18;31.70;;;10.70;;
73331;SDS011;61560;33.718;73.040;2022-11-28T01:33:47;26.65;;;11.48;;
73331;SDS011;61560;33.718;73.040;2022-11-28T01:36:14;34.00;;;12.48;;
73331;SDS011;61560;33.718;73.040;2022-11-28T01:38:43;36.20;;;14.52;;
73331;SDS011;61560;33.718;73.040;2022-11-28T01:41:12;36.60;;;13.05;;
73331;SDS011;61560;33.718;73.040;2022-11-28T01:43:56;28.77;;;11.63;;
73331;SDS011;61560;33.718;73.040;2022-11-28T01:46:28;29.42;;;12.70;;
73331;SDS011;61560;33.718;73.040;2022-11-28T01:49:00;38.53;;;13.93;;
73331;SDS011;61560;33.718;73.040;2022-11-28T01:51:43;29.67;;;11.77;;
73331;SDS011;61560;33.718;73.040;2022-11-28T01:54:18;34.83;;;13.52;;
73331;SDS011;61560;33.718;73.040;2022-11-28T01:56:48;45.72;;;14.20;;
73331;SDS011;61560;33.718;73.040;2022-11-28T01:59:40;44.38;;;15.48;;
73331;SDS011;61560;33.718;73.040;2022-11-28T02:02:14;47.05;;;17.85;;
73331;SDS011;61560;33.718;73.040;2022-11-28T02:04:50;36.28;;;16.33;;
73331;SDS011;61560;33.718;73.040;2022-11-28T02:07:19;40.58;;;16.17;;
73331;SDS011;61560;33.718;73.040;2022-11-28T02:09:47;42.83;;;13.13;;
73331;SDS011;61560;33.718;73.040;2022-11-28T02:12:27;33.67;;;14.20;;
73331;SDS011;61560;33.718;73.040;2022-11-28T02:15:38;41.25;;;15.82;;
73331;SDS011;61560;33.718;73.040;2022-11-28T02:21:37;39.75;;;14.95;;
73331;SDS011;61560;33.718;73.040;2022-11-28T02:38:44;46.92;;;18.05;;
73331;SDS011;61560;33.718;73.040;2022-11-28T02:49:21;44.90;;;19.58;;
73331;SDS011;61560;33.718;73.040;2022-11-28T02:51:56;51.80;;;19.95;;
73331;SDS011;61560;33.718;73.040;2022-11-28T02:54:30;50.35;;;20.38;;
73331;SDS011;61560;33.718;73.040;2022-11-28T02:56:58;56.13;;;20.80;;
73331;SDS011;61560;33.718;73.040;2022-11-28T02:59:32;54.67;;;21.35;;
73331;SDS011;61560;33.718;73.040;2022-11-28T03:02:20;64.60;;;22.95;;
73331;SDS011;61560;33.718;73.040;2022-11-28T03:04:56;69.50;;;22.38;;
73331;SDS011;61560;33.718;73.040;2022-11-28T03:10:39;61.65;;;21.75;;
73331;SDS011;61560;33.718;73.040;2022-11-28T03:13:26;58.58;;;21.85;;
73331;SDS011;61560;33.718;73.040;2022-11-28T03:16:23;57.83;;;22.30;;
73331;SDS011;61560;33.718;73.040;2022-11-28T03:22:18;50.67;;;21.20;;
73331;SDS011;61560;33.718;73.040;2022-11-28T03:24:58;47.42;;;21.02;;
73331;SDS011;61560;33.718;73.040;2022-11-28T03:27:43;51.78;;;20.67;;
73331;SDS011;61560;33.718;73.040;2022-11-28T03:32:45;60.75;;;21.48;;
73331;SDS011;61560;33.718;73.040;2022-11-28T03:35:22;54.47;;;20.10;;
73331;SDS011;61560;33.718;73.040;2022-11-28T03:38:38;51.38;;;20.10;;
73331;SDS011;61560;33.718;73.040;2022-11-28T03:40:52;60.97;;;20.38;;
73331;SDS011;61560;33.718;73.040;2022-11-28T03:43:30;48.80;;;19.27;;
73331;SDS011;61560;33.718;73.040;2022-11-28T03:46:05;56.05;;;21.98;;
73331;SDS011;61560;33.718;73.040;2022-11-28T03:48:44;55.70;;;24.00;;
73331;SDS011;61560;33.718;73.040;2022-11-28T03:51:16;70.30;;;24.20;;
73331;SDS011;61560;33.718;73.040;2022-11-28T03:56:24;49.10;;;19.80;;
73331;SDS011;61560;33.718;73.040;2022-11-28T03:59:32;51.10;;;21.70;;
73331;SDS011;61560;33.718;73.040;2022-11-28T04:16:37;57.15;;;20.73;;
73331;SDS011;61560;33.718;73.040;2022-11-28T04:19:29;60.17;;;23.90;;
73331;SDS011;61560;33.718;73.040;2022-11-28T04:22:17;56.58;;;22.30;;
73331;SDS011;61560;33.718;73.040;2022-11-28T04:24:53;56.75;;;22.50;;
73331;SDS011;61560;33.718;73.040;2022-11-28T04:27:34;59.58;;;23.85;;
73331;SDS011;61560;33.718;73.040;2022-11-28T04:30:07;50.53;;;21.45;;
73331;SDS011;61560;33.718;73.040;2022-11-28T04:32:36;58.38;;;22.92;;
73331;SDS011;61560;33.718;73.040;2022-11-28T04:35:07;63.45;;;26.02;;
73331;SDS011;61560;33.718;73.040;2022-11-28T04:37:39;62.10;;;22.17;;
73331;SDS011;61560;33.718;73.040;2022-11-28T04:40:08;63.08;;;23.48;;
73331;SDS011;61560;33.718;73.040;2022-11-28T04:42:48;59.28;;;23.48;;
73331;SDS011;61560;33.718;73.040;2022-11-28T04:45:24;54.28;;;22.25;;
73331;SDS011;61560;33.718;73.040;2022-11-28T04:47:58;59.92;;;24.23;;
73331;SDS011;61560;33.718;73.040;2022-11-28T04:50:28;55.20;;;23.92;;
73331;SDS011;61560;33.718;73.040;2022-11-28T04:53:08;71.65;;;27.05;;
73331;SDS011;61560;33.718;73.040;2022-11-28T04:56:04;75.78;;;27.75;;
73331;SDS011;61560;33.718;73.040;2022-11-28T04:58:39;74.95;;;27.70;;
73331;SDS011;61560;33.718;73.040;2022-11-28T05:03:43;75.45;;;28.15;;
73331;SDS011;61560;33.718;73.040;2022-11-28T05:06:10;68.10;;;28.10;;
73331;SDS011;61560;33.718;73.040;2022-11-28T05:08:54;72.60;;;27.98;;
73331;SDS011;61560;33.718;73.040;2022-11-28T05:11:21;72.18;;;28.95;;
73331;SDS011;61560;33.718;73.040;2022-11-28T05:13:50;77.28;;;30.77;;
73331;SDS011;61560;33.718;73.040;2022-11-28T05:16:17;80.85;;;31.65;;
73331;SDS011;61560;33.718;73.040;2022-11-28T05:18:44;90.05;;;32.75;;
73331;SDS011;61560;33.718;73.040;2022-11-28T05:21:11;71.32;;;30.02;;
73331;SDS011;61560;33.718;73.040;2022-11-28T05:23:39;80.72;;;33.80;;
73331;SDS011;61560;33.718;73.040;2022-11-28T05:26:09;78.03;;;31.90;;
73331;SDS011;61560;33.718;73.040;2022-11-28T05:28:46;84.05;;;33.05;;
73331;SDS011;61560;33.718;73.040;2022-11-28T05:31:15;82.78;;;30.95;;
73331;SDS011;61560;33.718;73.040;2022-11-28T05:33:44;61.22;;;27.27;;
73331;SDS011;61560;33.718;73.040;2022-11-28T05:36:12;81.50;;;33.45;;
73331;SDS011;61560;33.718;73.040;2022-11-28T05:38:39;77.15;;;31.20;;
73331;SDS011;61560;33.718;73.040;2022-11-28T05:41:08;67.28;;;27.73;;
73331;SDS011;61560;33.718;73.040;2022-11-28T05:43:35;76.57;;;30.58;;
73331;SDS011;61560;33.718;73.040;2022-11-28T05:46:03;67.18;;;29.35;;
73331;SDS011;61560;33.718;73.040;2022-11-28T05:48:31;65.93;;;28.35;;
73331;SDS011;61560;33.718;73.040;2022-11-28T05:51:02;69.43;;;28.33;;
73331;SDS011;61560;33.718;73.040;2022-11-28T05:53:31;76.28;;;31.02;;
73331;SDS011;61560;33.718;73.040;2022-11-28T05:55:58;81.32;;;28.70;;
73331;SDS011;61560;33.718;73.040;2022-11-28T05:58:25;72.32;;;30.98;;
73331;SDS011;61560;33.718;73.040;2022-11-28T06:00:52;72.72;;;31.52;;
73331;SDS011;61560;33.718;73.040;2022-11-28T06:03:19;56.80;;;24.73;;
73331;SDS011;61560;33.718;73.040;2022-11-28T06:05:46;70.28;;;29.38;;
73331;SDS011;61560;33.718;73.040;2022-11-28T06:08:14;69.63;;;30.10;;
73331;SDS011;61560;33.718;73.040;2022-11-28T06:10:41;74.85;;;32.22;;
73331;SDS011;61560;33.718;73.040;2022-11-28T06:13:08;82.40;;;32.72;;
73331;SDS011;61560;33.718;73.040;2022-11-28T06:15:35;72.85;;;34.42;;
73331;SDS011;61560;33.718;73.040;2022-11-28T06:18:04;87.10;;;33.17;;
73331;SDS011;61560;33.718;73.040;2022-11-28T06:20:33;73.47;;;31.17;;
73331;SDS011;61560;33.718;73.040;2022-11-28T06:23:02;84.82;;;32.90;;
73331;SDS011;61560;33.718;73.040;2022-11-28T06:25:28;64.22;;;28.60;;
73331;SDS011;61560;33.718;73.040;2022-11-28T06:27:56;80.50;;;32.63;;
73331;SDS011;61560;33.718;73.040;2022-11-28T06:30:22;76.95;;;29.38;;
73331;SDS011;61560;33.718;73.040;2022-11-28T06:32:50;77.88;;;32.55;;
73331;SDS011;61560;33.718;73.040;2022-11-28T06:35:17;68.18;;;27.92;;
73331;SDS011;61560;33.718;73.040;2022-11-28T06:37:44;77.90;;;30.52;;
73331;SDS011;61560;33.718;73.040;2022-11-28T06:40:10;78.18;;;30.88;;
73331;SDS011;61560;33.718;73.040;2022-11-28T06:42:38;71.03;;;29.17;;
73331;SDS011;61560;33.718;73.040;2022-11-28T06:45:05;72.55;;;30.27;;
73331;SDS011;61560;33.718;73.040;2022-11-28T06:47:33;79.35;;;33.92;;
73331;SDS011;61560;33.718;73.040;2022-11-28T06:50:02;89.72;;;34.22;;
73331;SDS011;61560;33.718;73.040;2022-11-28T06:52:29;90.13;;;34.65;;
73331;SDS011;61560;33.718;73.040;2022-11-28T06:54:56;82.80;;;34.35;;
73331;SDS011;61560;33.718;73.040;2022-11-28T06:57:24;84.60;;;33.90;;
73331;SDS011;61560;33.718;73.040;2022-11-28T06:59:51;82.70;;;33.63;;
73331;SDS011;61560;33.718;73.040;2022-11-28T07:02:19;80.20;;;34.28;;
73331;SDS011;61560;33.718;73.040;2022-11-28T07:04:50;72.07;;;29.45;;
73331;SDS011;61560;33.718;73.040;2022-11-28T07:07:17;80.05;;;32.35;;
73331;SDS011;61560;33.718;73.040;2022-11-28T07:09:44;79.80;;;32.72;;
73331;SDS011;61560;33.718;73.040;2022-11-28T07:12:12;86.97;;;31.42;;
73331;SDS011;61560;33.718;73.040;2022-11-28T07:14:39;81.32;;;32.20;;
73331;SDS011;61560;33.718;73.040;2022-11-28T07:17:06;76.38;;;31.27;;
73331;SDS011;61560;33.718;73.040;2022-11-28T07:19:33;85.07;;;32.05;;
73331;SDS011;61560;33.718;73.040;2022-11-28T07:22:00;82.82;;;34.13;;
73331;SDS011;61560;33.718;73.040;2022-11-28T07:24:27;83.47;;;33.33;;
73331;SDS011;61560;33.718;73.040;2022-11-28T07:26:55;82.10;;;35.75;;
73331;SDS011;61560;33.718;73.040;2022-11-28T07:29:22;85.57;;;34.60;;
73331;SDS011;61560;33.718;73.040;2022-11-28T07:31:50;72.35;;;31.95;;
73331;SDS011;61560;33.718;73.040;2022-11-28T07:34:17;93.05;;;34.80;;
73331;SDS011;61560;33.718;73.040;2022-11-28T07:36:45;87.18;;;33.65;;
73331;SDS011;61560;33.718;73.040;2022-11-28T07:39:12;85.82;;;33.80;;
73331;SDS011;61560;33.718;73.040;2022-11-28T07:41:42;79.35;;;32.33;;
73331;SDS011;61560;33.718;73.040;2022-11-28T07:44:09;86.65;;;34.13;;
73331;SDS011;61560;33.718;73.040;2022-11-28T07:46:37;88.60;;;32.70;;
73331;SDS011;61560;33.718;73.040;2022-11-28T07:49:04;84.22;;;35.00;;
73331;SDS011;61560;33.718;73.040;2022-11-28T07:51:32;84.15;;;34.72;;
73331;SDS011;61560;33.718;73.040;2022-11-28T07:53:59;85.13;;;34.22;;
73331;SDS011;61560;33.718;73.040;2022-11-28T07:56:29;79.82;;;34.28;;
73331;SDS011;61560;33.718;73.040;2022-11-28T07:58:58;71.57;;;29.70;;
73331;SDS011;61560;33.718;73.040;2022-11-28T08:01:28;72.50;;;31.05;;
73331;SDS011;61560;33.718;73.040;2022-11-28T08:03:58;80.78;;;31.38;;
73331;SDS011;61560;33.718;73.040;2022-11-28T08:06:25;77.65;;;31.98;;
73331;SDS011;61560;33.718;73.040;2022-11-28T08:08:54;80.07;;;30.42;;
73331;SDS011;61560;33.718;73.040;2022-11-28T08:11:22;78.85;;;32.65;;
73331;SDS011;61560;33.718;73.040;2022-11-28T08:13:51;88.15;;;32.80;;
73331;SDS011;61560;33.718;73.040;2022-11-28T08:16:18;86.43;;;31.40;;
73331;SDS011;61560;33.718;73.040;2022-11-28T08:18:47;80.78;;;31.35;;
73331;SDS011;61560;33.718;73.040;2022-11-28T08:21:19;78.10;;;31.40;;
73331;SDS011;61560;33.718;73.040;2022-11-28T08:23:51;97.80;;;35.60;;
73331;SDS011;61560;33.718;73.040;2022-11-28T08:26:20;80.18;;;32.08;;
73331;SDS011;61560;33.718;73.040;2022-11-28T08:28:53;82.13;;;32.25;;
73331;SDS011;61560;33.718;73.040;2022-11-28T08:31:21;85.18;;;31.77;;
73331;SDS011;61560;33.718;73.040;2022-11-28T08:33:54;72.10;;;29.75;;
73331;SDS011;61560;33.718;73.040;2022-11-28T08:36:23;67.70;;;28.30;;
73331;SDS011;61560;33.718;73.040;2022-11-28T08:38:50;84.43;;;32.72;;
73331;SDS011;61560;33.718;73.040;2022-11-28T08:41:18;88.85;;;32.60;;
73331;SDS011;61560;33.718;73.040;2022-11-28T08:43:47;86.30;;;32.97;;
73331;SDS011;61560;33.718;73.040;2022-11-28T08:46:15;82.43;;;32.78;;
73331;SDS011;61560;33.718;73.040;2022-11-28T08:48:47;82.55;;;29.85;;
73331;SDS011;61560;33.718;73.040;2022-11-28T08:51:16;89.13;;;34.60;;
73331;SDS011;61560;33.718;73.040;2022-11-28T08:53:46;76.93;;;30.60;;
73331;SDS011;61560;33.718;73.040;2022-11-28T08:56:12;79.00;;;30.30;;
73331;SDS011;61560;33.718;73.040;2022-11-28T08:58:39;87.82;;;31.40;;
73331;SDS011;61560;33.718;73.040;2022-11-28T09:01:13;77.05;;;32.78;;
73331;SDS011;61560;33.718;73.040;2022-11-28T09:03:48;84.03;;;32.70;;
73331;SDS011;61560;33.718;73.040;2022-11-28T09:06:16;73.22;;;32.03;;
73331;SDS011;61560;33.718;73.040;2022-11-28T09:08:44;76.43;;;30.20;;
73331;SDS011;61560;33.718;73.040;2022-11-28T09:11:12;80.05;;;30.55;;
73331;SDS011;61560;33.718;73.040;2022-11-28T09:13:42;72.53;;;29.10;;
73331;SDS011;61560;33.718;73.040;2022-11-28T09:16:09;74.95;;;27.77;;
73331;SDS011;61560;33.718;73.040;2022-11-28T09:18:38;74.45;;;31.40;;
73331;SDS011;61560;33.718;73.040;2022-11-28T09:21:06;73.20;;;29.02;;
73331;SDS011;61560;33.718;73.040;2022-11-28T09:23:37;67.53;;;28.42;;
73331;SDS011;61560;33.718;73.040;2022-11-28T09:26:09;74.80;;;29.00;;
73331;SDS011;61560;33.718;73.040;2022-11-28T09:28:55;59.08;;;26.52;;
73331;SDS011;61560;33.718;73.040;2022-11-28T09:31:22;62.75;;;27.10;;
73331;SDS011;61560;33.718;73.040;2022-11-28T09:33:49;62.85;;;26.58;;
73331;SDS011;61560;33.718;73.040;2022-11-28T09:36:17;77.00;;;28.88;;
73331;SDS011;61560;33.718;73.040;2022-11-28T09:38:46;75.00;;;31.13;;
73331;SDS011;61560;33.718;73.040;2022-11-28T09:44:02;69.47;;;29.60;;
73331;SDS011;61560;33.718;73.040;2022-11-28T09:46:42;72.00;;;30.02;;
73331;SDS011;61560;33.718;73.040;2022-11-28T09:52:02;67.40;;;27.20;;
73331;SDS011;61560;33.718;73.040;2022-11-28T09:55:57;80.97;;;30.17;;
73331;SDS011;61560;33.718;73.040;2022-11-28T09:57:52;80.80;;;30.20;;
73331;SDS011;61560;33.718;73.040;2022-11-28T10:00:20;76.80;;;30.30;;
73331;SDS011;61560;33.718;73.040;2022-11-28T10:08:42;63.55;;;25.58;;
73331;SDS011;61560;33.718;73.040;2022-11-28T10:12:03;69.75;;;27.65;;
73331;SDS011;61560;33.718;73.040;2022-11-28T10:14:37;71.75;;;28.35;;
73331;SDS011;61560;33.718;73.040;2022-11-28T10:22:43;64.22;;;25.30;;
73331;SDS011;61560;33.718;73.040;2022-11-28T10:27:52;67.22;;;26.50;;
73331;SDS011;61560;33.718;73.040;2022-11-28T10:30:21;67.63;;;27.20;;
73331;SDS011;61560;33.718;73.040;2022-11-28T10:33:01;64.40;;;24.60;;
73331;SDS011;61560;33.718;73.040;2022-11-28T10:35:52;80.72;;;29.27;;
73331;SDS011;61560;33.718;73.040;2022-11-28T10:38:26;81.30;;;27.45;;
73331;SDS011;61560;33.718;73.040;2022-11-28T10:40:56;71.22;;;26.15;;
73331;SDS011;61560;33.718;73.040;2022-11-28T10:46:12;71.10;;;26.60;;
73331;SDS011;61560;33.718;73.040;2022-11-28T10:48:56;61.90;;;24.33;;
73331;SDS011;61560;33.718;73.040;2022-11-28T10:54:17;94.85;;;31.80;;
73331;SDS011;61560;33.718;73.040;2022-11-28T10:59:35;91.53;;;30.83;;
73331;SDS011;61560;33.718;73.040;2022-11-28T11:05:26;66.70;;;25.90;;
73331;SDS011;61560;33.718;73.040;2022-11-28T11:10:38;60.03;;;25.40;;
73331;SDS011;61560;33.718;73.040;2022-11-28T11:13:11;56.03;;;23.02;;
73331;SDS011;61560;33.718;73.040;2022-11-28T11:15:43;60.03;;;21.95;;
73331;SDS011;61560;33.718;73.040;2022-11-28T11:20:49;55.58;;;22.77;;
73331;SDS011;61560;33.718;73.040;2022-11-28T11:23:17;55.08;;;21.73;;
73331;SDS011;61560;33.718;73.040;2022-11-28T11:25:52;63.97;;;23.33;;
73331;SDS011;61560;33.718;73.040;2022-11-28T11:28:25;56.50;;;22.20;;
73331;SDS011;61560;33.718;73.040;2022-11-28T11:31:02;49.88;;;22.85;;
73331;SDS011;61560;33.718;73.040;2022-11-28T11:33:35;52.35;;;21.50;;
73331;SDS011;61560;33.718;73.040;2022-11-28T11:36:23;55.08;;;22.77;;
73331;SDS011;61560;33.718;73.040;2022-11-28T11:39:03;53.55;;;21.42;;
73331;SDS011;61560;33.718;73.040;2022-11-28T11:41:37;57.63;;;22.73;;
73331;SDS011;61560;33.718;73.040;2022-11-28T11:47:00;70.65;;;27.38;;
73331;SDS011;61560;33.718;73.040;2022-11-28T11:49:31;74.38;;;27.52;;
73331;SDS011;61560;33.718;73.040;2022-11-28T11:57:13;72.72;;;28.70;;
73331;SDS011;61560;33.718;73.040;2022-11-28T11:59:44;68.18;;;28.15;;
73331;SDS011;61560;33.718;73.040;2022-11-28T12:02:37;71.38;;;27.45;;
73331;SDS011;61560;33.718;73.040;2022-11-28T12:05:22;73.75;;;28.33;;
73331;SDS011;61560;33.718;73.040;2022-11-28T12:07:58;63.55;;;24.05;;
73331;SDS011;61560;33.718;73.040;2022-11-28T12:10:35;73.97;;;27.27;;
73331;SDS011;61560;33.718;73.040;2022-11-28T12:13:19;75.25;;;29.38;;
73331;SDS011;61560;33.718;73.040;2022-11-28T12:19:01;64.00;;;27.05;;
73331;SDS011;61560;33.718;73.040;2022-11-28T12:32:59;77.55;;;30.23;;
73331;SDS011;61560;33.718;73.040;2022-11-28T12:35:37;75.15;;;28.98;;
73331;SDS011;61560;33.718;73.040;2022-11-28T12:41:08;76.03;;;28.65;;
73331;SDS011;61560;33.718;73.040;2022-11-28T12:46:46;72.28;;;28.42;;
73331;SDS011;61560;33.718;73.040;2022-11-28T12:49:34;68.07;;;28.17;;
73331;SDS011;61560;33.718;73.040;2022-11-28T12:52:11;81.18;;;29.70;;
73331;SDS011;61560;33.718;73.040;2022-11-28T12:55:07;85.32;;;30.25;;
73331;SDS011;61560;33.718;73.040;2022-11-28T13:06:41;75.20;;;26.90;;
73331;SDS011;61560;33.718;73.040;2022-11-28T13:23:43;70.97;;;27.35;;
73331;SDS011;61560;33.718;73.040;2022-11-28T13:29:08;65.60;;;27.13;;
73331;SDS011;61560;33.718;73.040;2022-11-28T13:35:02;69.68;;;28.05;;
73331;SDS011;61560;33.718;73.040;2022-11-28T13:37:34;76.75;;;29.52;;
73331;SDS011;61560;33.718;73.040;2022-11-28T13:45:29;70.57;;;27.55;;
73331;SDS011;61560;33.718;73.040;2022-11-28T13:48:49;79.60;;;29.90;;
73331;SDS011;61560;33.718;73.040;2022-11-28T13:56:37;71.70;;;27.73;;
73331;SDS011;61560;33.718;73.040;2022-11-28T13:59:09;71.55;;;28.52;;
73331;SDS011;61560;33.718;73.040;2022-11-28T14:01:51;70.75;;;27.88;;
73331;SDS011;61560;33.718;73.040;2022-11-28T14:04:27;71.55;;;28.42;;
73331;SDS011;61560;33.718;73.040;2022-11-28T14:09:49;75.63;;;28.90;;
73331;SDS011;61560;33.718;73.040;2022-11-28T14:20:56;75.38;;;27.65;;
73331;SDS011;61560;33.718;73.040;2022-11-28T14:23:36;76.97;;;28.23;;
73331;SDS011;61560;33.718;73.040;2022-11-28T14:26:29;75.53;;;29.67;;
73331;SDS011;61560;33.718;73.040;2022-11-28T14:28:52;79.80;;;28.77;;
73331;SDS011;61560;33.718;73.040;2022-11-28T14:33:58;78.80;;;29.35;;
73331;SDS011;61560;33.718;73.040;2022-11-28T14:36:31;78.60;;;27.63;;
73331;SDS011;61560;33.718;73.040;2022-11-28T14:39:04;86.22;;;32.03;;
73331;SDS011;61560;33.718;73.040;2022-11-28T14:52:43;63.55;;;25.95;;
73331;SDS011;61560;33.718;73.040;2022-11-28T14:55:21;68.35;;;27.15;;
73331;SDS011;61560;33.718;73.040;2022-11-28T14:58:01;74.82;;;28.13;;
73331;SDS011;61560;33.718;73.040;2022-11-28T15:00:32;76.95;;;31.25;;
73331;SDS011;61560;33.718;73.040;2022-11-28T15:03:22;79.70;;;30.17;;
73331;SDS011;61560;33.718;73.040;2022-11-28T15:06:09;68.70;;;27.83;;
73331;SDS011;61560;33.718;73.040;2022-11-28T15:08:53;75.68;;;28.77;;
73331;SDS011;61560;33.718;73.040;2022-11-28T15:16:42;77.55;;;29.70;;
73331;SDS011;61560;33.718;73.040;2022-11-28T15:21:47;80.03;;;28.55;;
73331;SDS011;61560;33.718;73.040;2022-11-28T15:24:27;76.97;;;27.77;;
73331;SDS011;61560;33.718;73.040;2022-11-28T15:26:57;74.57;;;26.55;;
73331;SDS011;61560;33.718;73.040;2022-11-28T15:29:37;75.68;;;27.30;;
73331;SDS011;61560;33.718;73.040;2022-11-28T15:32:04;76.85;;;28.08;;
73331;SDS011;61560;33.718;73.040;2022-11-28T15:34:34;69.15;;;26.00;;
73331;SDS011;61560;33.718;73.040;2022-11-28T15:37:12;76.95;;;28.35;;
73331;SDS011;61560;33.718;73.040;2022-11-28T15:39:44;68.22;;;26.27;;
73331;SDS011;61560;33.718;73.040;2022-11-28T15:42:28;73.57;;;27.92;;
73331;SDS011;61560;33.718;73.040;2022-11-28T15:47:48;79.70;;;30.42;;
73331;SDS011;61560;33.718;73.040;2022-11-28T15:50:18;74.18;;;31.38;;
73331;SDS011;61560;33.718;73.040;2022-11-28T15:55:30;73.25;;;28.13;;
73331;SDS011;61560;33.718;73.040;2022-11-28T15:58:09;80.28;;;28.70;;
73331;SDS011;61560;33.718;73.040;2022-11-28T16:00:40;69.35;;;26.35;;
73331;SDS011;61560;33.718;73.040;2022-11-28T16:03:12;76.43;;;30.50;;
73331;SDS011;61560;33.718;73.040;2022-11-28T16:05:43;85.55;;;31.35;;
73331;SDS011;61560;33.718;73.040;2022-11-28T16:08:31;85.97;;;31.13;;
73331;SDS011;61560;33.718;73.040;2022-11-28T16:11:03;78.10;;;28.23;;
73331;SDS011;61560;33.718;73.040;2022-11-28T16:13:33;71.25;;;29.02;;
73331;SDS011;61560;33.718;73.040;2022-11-28T16:16:06;86.05;;;30.30;;
73331;SDS011;61560;33.718;73.040;2022-11-28T16:18:49;86.30;;;32.25;;
73331;SDS011;61560;33.718;73.040;2022-11-28T16:21:25;87.93;;;31.70;;
73331;SDS011;61560;33.718;73.040;2022-11-28T16:24:02;74.50;;;28.00;;
73331;SDS011;61560;33.718;73.040;2022-11-28T16:26:51;73.82;;;28.20;;
73331;SDS011;61560;33.718;73.040;2022-11-28T16:29:21;65.40;;;26.30;;
73331;SDS011;61560;33.718;73.040;2022-11-28T16:31:49;72.85;;;28.70;;
73331;SDS011;61560;33.718;73.040;2022-11-28T16:34:26;68.43;;;27.80;;
73331;SDS011;61560;33.718;73.040;2022-11-28T16:37:26;65.10;;;24.58;;
73331;SDS011;61560;33.718;73.040;2022-11-28T16:39:59;73.18;;;28.33;;
73331;SDS011;61560;33.718;73.040;2022-11-28T16:44:54;65.55;;;25.40;;
73331;SDS011;61560;33.718;73.040;2022-11-28T16:47:23;78.95;;;28.77;;
73331;SDS011;61560;33.718;73.040;2022-11-28T16:52:48;69.82;;;26.05;;
73331;SDS011;61560;33.718;73.040;2022-11-28T16:58:00;76.20;;;27.58;;
73331;SDS011;61560;33.718;73.040;2022-11-28T17:00:36;66.53;;;25.95;;
73331;SDS011;61560;33.718;73.040;2022-11-28T17:03:05;79.80;;;28.35;;
73331;SDS011;61560;33.718;73.040;2022-11-28T17:05:32;65.63;;;26.58;;
73331;SDS011;61560;33.718;73.040;2022-11-28T17:07:59;73.88;;;27.25;;
73331;SDS011;61560;33.718;73.040;2022-11-28T17:12:57;69.80;;;26.30;;
73331;SDS011;61560;33.718;73.040;2022-11-28T17:15:24;65.40;;;24.75;;
73331;SDS011;61560;33.718;73.040;2022-11-28T17:17:53;61.67;;;24.40;;
73331;SDS011;61560;33.718;73.040;2022-11-28T17:20:23;60.88;;;23.45;;
73331;SDS011;61560;33.718;73.040;2022-11-28T17:22:51;60.03;;;24.08;;
73331;SDS011;61560;33.718;73.040;2022-11-28T17:25:21;61.88;;;23.23;;
73331;SDS011;61560;33.718;73.040;2022-11-28T17:27:48;72.28;;;27.15;;
73331;SDS011;61560;33.718;73.040;2022-11-28T17:30:17;70.55;;;25.05;;
73331;SDS011;61560;33.718;73.040;2022-11-28T17:32:45;61.22;;;24.23;;
73331;SDS011;61560;33.718;73.040;2022-11-28T17:35:18;58.38;;;22.77;;
73331;SDS011;61560;33.718;73.040;2022-11-28T17:37:49;67.57;;;24.60;;
73331;SDS011;61560;33.718;73.040;2022-11-28T17:40:16;69.40;;;24.30;;
73331;SDS011;61560;33.718;73.040;2022-11-28T17:42:59;57.08;;;24.15;;
73331;SDS011;61560;33.718;73.040;2022-11-28T17:45:26;57.00;;;23.35;;
73331;SDS011;61560;33.718;73.040;2022-11-28T17:47:55;64.18;;;24.02;;
73331;SDS011;61560;33.718;73.040;2022-11-28T17:50:22;68.15;;;24.45;;
73331;SDS011;61560;33.718;73.040;2022-11-28T17:52:50;64.72;;;23.00;;
73331;SDS011;61560;33.718;73.040;2022-11-28T17:55:18;66.03;;;24.23;;
73331;SDS011;61560;33.718;73.040;2022-11-28T17:57:46;57.03;;;23.20;;
73331;SDS011;61560;33.718;73.040;2022-11-28T18:00:13;54.80;;;22.17;;
73331;SDS011;61560;33.718;73.040;2022-11-28T18:02:43;59.13;;;22.90;;
73331;SDS011;61560;33.718;73.040;2022-11-28T18:05:10;61.05;;;23.65;;
73331;SDS011;61560;33.718;73.040;2022-11-28T18:07:41;61.53;;;23.02;;
73331;SDS011;61560;33.718;73.040;2022-11-28T18:10:10;51.05;;;21.10;;